sensor_id;sensor_type;location;lat;lon;timestamp;pressure;altitude;pressure_sealevel;temperature
40624;BMP280;26325;48.594;11.650;2022-12-07T00:01:29;96619.75;;;4.07
40624;BMP280;26325;48.594;11.650;2022-12-07T00:03:57;96613.88;;;4.00
40624;BMP280;26325;48.594;11.650;2022-12-07T00:06:26;96613.88;;;4.00
40624;BMP280;26325;48.594;11.650;2022-12-07T00:08:54;96612.13;;;3.94
40624;BMP280;26325;48.594;11.650;2022-12-07T00:11:22;96611.91;;;3.89
40624;BMP280;26325;48.594;11.650;2022-12-07T00:13:53;96606.03;;;3.95
40624;BMP280;26325;48.594;11.650;2022-12-07T00:16:21;96602.28;;;3.91
40624;BMP280;26325;48.594;11.650;2022-12-07T00:18:47;96610.75;;;3.85
40624;BMP280;26325;48.594;11.650;2022-12-07T00:21:38;96610.94;;;3.84
40624;BMP280;26325;48.594;11.650;2022-12-07T00:24:04;96605.66;;;3.85
40624;BMP280;26325;48.594;11.650;2022-12-07T00:26:34;96607.19;;;3.80
40624;BMP280;26325;48.594;11.650;2022-12-07T00:29:03;96606.63;;;3.72
40624;BMP280;26325;48.594;11.650;2022-12-07T00:31:33;96603.91;;;3.61
40624;BMP280;26325;48.594;11.650;2022-12-07T00:34:00;96607.22;;;3.61
40624;BMP280;26325;48.594;11.650;2022-12-07T00:36:26;96601.53;;;3.59
40624;BMP280;26325;48.594;11.650;2022-12-07T00:38:52;96603.31;;;3.52
40624;BMP280;26325;48.594;11.650;2022-12-07T00:41:23;96605.06;;;3.58
40624;BMP280;26325;48.594;11.650;2022-12-07T00:43:50;96605.66;;;3.60
40624;BMP280;26325;48.594;11.650;2022-12-07T00:46:17;96605.28;;;3.44
40624;BMP280;26325;48.594;11.650;2022-12-07T00:48:46;96612.72;;;3.58
40624;BMP280;26325;48.594;11.650;2022-12-07T00:51:14;96613.91;;;3.56
40624;BMP280;26325;48.594;11.650;2022-12-07T00:53:43;96615.28;;;3.52
40624;BMP280;26325;48.594;11.650;2022-12-07T00:56:24;96608.78;;;3.62
40624;BMP280;26325;48.594;11.650;2022-12-07T00:58:59;96611.91;;;3.45
40624;BMP280;26325;48.594;11.650;2022-12-07T01:01:29;96607.59;;;3.39
40624;BMP280;26325;48.594;11.650;2022-12-07T01:03:57;96611.91;;;3.39
40624;BMP280;26325;48.594;11.650;2022-12-07T01:06:24;96617.81;;;3.45
40624;BMP280;26325;48.594;11.650;2022-12-07T01:08:54;96610.19;;;3.52
40624;BMP280;26325;48.594;11.650;2022-12-07T01:11:25;96606.03;;;3.57
40624;BMP280;26325;48.594;11.650;2022-12-07T01:13:54;96606.06;;;3.51
40624;BMP280;26325;48.594;11.650;2022-12-07T01:16:22;96609.97;;;3.47
40624;BMP280;26325;48.594;11.650;2022-12-07T01:18:52;96614.50;;;3.58
40624;BMP280;26325;48.594;11.650;2022-12-07T01:21:27;96610.16;;;3.58
40624;BMP280;26325;48.594;11.650;2022-12-07T01:23:53;96622.16;;;3.51
40624;BMP280;26325;48.594;11.650;2022-12-07T01:26:24;96618.63;;;3.52
40624;BMP280;26325;48.594;11.650;2022-12-07T01:28:51;96619.38;;;3.53
40624;BMP280;26325;48.594;11.650;2022-12-07T01:31:20;96611.16;;;3.57
40624;BMP280;26325;48.594;11.650;2022-12-07T01:33:49;96619.78;;;3.56
40624;BMP280;26325;48.594;11.650;2022-12-07T01:36:19;96619.41;;;3.59
40624;BMP280;26325;48.594;11.650;2022-12-07T01:38:47;96610.34;;;3.63
40624;BMP280;26325;48.594;11.650;2022-12-07T01:41:14;96606.03;;;3.57
40624;BMP280;26325;48.594;11.650;2022-12-07T01:44:09;96609.56;;;3.56
40624;BMP280;26325;48.594;11.650;2022-12-07T01:46:35;96613.31;;;3.47
40624;BMP280;26325;48.594;11.650;2022-12-07T01:49:06;96604.47;;;3.50
40624;BMP280;26325;48.594;11.650;2022-12-07T01:51:37;96608.78;;;3.62
40624;BMP280;26325;48.594;11.650;2022-12-07T01:54:05;96603.28;;;3.65
40624;BMP280;26325;48.594;11.650;2022-12-07T01:56:32;96604.09;;;3.59
40624;BMP280;26325;48.594;11.650;2022-12-07T01:58:59;96598.19;;;3.52
40624;BMP280;26325;48.594;11.650;2022-12-07T02:01:27;96604.06;;;3.53
40624;BMP280;26325;48.594;11.650;2022-12-07T02:03:53;96605.06;;;3.64
40624;BMP280;26325;48.594;11.650;2022-12-07T02:06:22;96592.69;;;3.68
40624;BMP280;26325;48.594;11.650;2022-12-07T02:08:48;96597.78;;;3.68
40624;BMP280;26325;48.594;11.650;2022-12-07T02:11:17;96599.56;;;3.67
40624;BMP280;26325;48.594;11.650;2022-12-07T02:13:47;96602.50;;;3.64
40624;BMP280;26325;48.594;11.650;2022-12-07T02:16:38;96594.03;;;3.70
40624;BMP280;26325;48.594;11.650;2022-12-07T02:22:18;96601.31;;;3.73
40624;BMP280;26325;48.594;11.650;2022-12-07T02:27:53;96608.78;;;3.62
40624;BMP280;26325;48.594;11.650;2022-12-07T02:30:28;96598.94;;;3.72
40624;BMP280;26325;48.594;11.650;2022-12-07T02:36:06;96598.94;;;3.72
40624;BMP280;26325;48.594;11.650;2022-12-07T02:38:55;96599.94;;;3.71
40624;BMP280;26325;48.594;11.650;2022-12-07T02:41:32;96598.19;;;3.59
40624;BMP280;26325;48.594;11.650;2022-12-07T02:44:06;96600.34;;;3.55
40624;BMP280;26325;48.594;11.650;2022-12-07T02:46:38;96596.41;;;3.59
40624;BMP280;26325;48.594;11.650;2022-12-07T02:49:06;96597.19;;;3.53
40624;BMP280;26325;48.594;11.650;2022-12-07T02:51:33;96586.56;;;3.62
40624;BMP280;26325;48.594;11.650;2022-12-07T02:54:00;96599.94;;;3.64
40624;BMP280;26325;48.594;11.650;2022-12-07T02:56:52;96591.13;;;3.67
40624;BMP280;26325;48.594;11.650;2022-12-07T03:11:00;96587.78;;;3.35
40624;BMP280;26325;48.594;11.650;2022-12-07T03:16:16;96589.16;;;3.43
40624;BMP280;26325;48.594;11.650;2022-12-07T03:18:55;96590.72;;;3.38
40624;BMP280;26325;48.594;11.650;2022-12-07T03:21:32;96583.84;;;3.39
40624;BMP280;26325;48.594;11.650;2022-12-07T03:24:06;96588.34;;;3.37
40624;BMP280;26325;48.594;11.650;2022-12-07T03:26:40;96583.63;;;3.46
40624;BMP280;26325;48.594;11.650;2022-12-07T03:29:12;96585.22;;;3.41
40624;BMP280;26325;48.594;11.650;2022-12-07T03:31:43;96575.00;;;3.22
40624;BMP280;26325;48.594;11.650;2022-12-07T03:34:21;96584.41;;;3.28
40624;BMP280;26325;48.594;11.650;2022-12-07T03:37:05;96594.25;;;3.31
40624;BMP280;26325;48.594;11.650;2022-12-07T03:39:42;96578.94;;;3.31
40624;BMP280;26325;48.594;11.650;2022-12-07T03:42:10;96583.66;;;3.34
40624;BMP280;26325;48.594;11.650;2022-12-07T03:44:37;96574.78;;;3.30
40624;BMP280;26325;48.594;11.650;2022-12-07T03:49:58;96579.50;;;3.20
40624;BMP280;26325;48.594;11.650;2022-12-07T03:52:40;96582.47;;;3.17
40624;BMP280;26325;48.594;11.650;2022-12-07T03:57:44;96589.75;;;3.26
40624;BMP280;26325;48.594;11.650;2022-12-07T04:00:12;96582.09;;;3.26
40624;BMP280;26325;48.594;11.650;2022-12-07T04:02:39;96586.00;;;3.29
40624;BMP280;26325;48.594;11.650;2022-12-07T04:05:05;96592.66;;;3.30
40624;BMP280;26325;48.594;11.650;2022-12-07T04:07:34;96578.53;;;3.27
40624;BMP280;26325;48.594;11.650;2022-12-07T04:10:00;96577.53;;;3.22
40624;BMP280;26325;48.594;11.650;2022-12-07T04:12:28;96581.66;;;3.23
40624;BMP280;26325;48.594;11.650;2022-12-07T04:14:53;96578.94;;;3.24
40624;BMP280;26325;48.594;11.650;2022-12-07T04:17:19;96576.19;;;3.26
40624;BMP280;26325;48.594;11.650;2022-12-07T04:19:44;96576.94;;;3.20
40624;BMP280;26325;48.594;11.650;2022-12-07T04:22:12;96580.50;;;3.32
40624;BMP280;26325;48.594;11.650;2022-12-07T04:24:38;96574.59;;;3.38
40624;BMP280;26325;48.594;11.650;2022-12-07T04:27:06;96577.94;;;3.44
40624;BMP280;26325;48.594;11.650;2022-12-07T04:29:31;96576.16;;;3.45
40624;BMP280;26325;48.594;11.650;2022-12-07T04:31:57;96563.41;;;3.39
40624;BMP280;26325;48.594;11.650;2022-12-07T04:34:22;96574.41;;;3.45
40624;BMP280;26325;48.594;11.650;2022-12-07T04:36:48;96560.84;;;3.39
40624;BMP280;26325;48.594;11.650;2022-12-07T04:39:29;96558.91;;;3.47
40624;BMP280;26325;48.594;11.650;2022-12-07T04:41:56;96557.91;;;3.29
40624;BMP280;26325;48.594;11.650;2022-12-07T04:44:23;96552.22;;;3.40
40624;BMP280;26325;48.594;11.650;2022-12-07T04:46:50;96562.25;;;3.35
40624;BMP280;26325;48.594;11.650;2022-12-07T04:49:16;96556.16;;;3.42
40624;BMP280;26325;48.594;11.650;2022-12-07T04:51:43;96556.75;;;3.44
40624;BMP280;26325;48.594;11.650;2022-12-07T04:54:10;96553.00;;;3.46
40624;BMP280;26325;48.594;11.650;2022-12-07T04:56:36;96558.50;;;3.50
40624;BMP280;26325;48.594;11.650;2022-12-07T04:59:03;96571.66;;;3.41
40624;BMP280;26325;48.594;11.650;2022-12-07T05:01:29;96562.25;;;3.35
40624;BMP280;26325;48.594;11.650;2022-12-07T05:03:54;96553.00;;;3.46
40624;BMP280;26325;48.594;11.650;2022-12-07T05:06:20;96556.56;;;3.52
40624;BMP280;26325;48.594;11.650;2022-12-07T05:08:46;96564.00;;;3.41
40624;BMP280;26325;48.594;11.650;2022-12-07T05:11:12;96559.28;;;3.25
40624;BMP280;26325;48.594;11.650;2022-12-07T05:13:56;96561.06;;;3.31
40624;BMP280;26325;48.594;11.650;2022-12-07T05:16:22;96553.78;;;3.41
40624;BMP280;26325;48.594;11.650;2022-12-07T05:18:48;96564.81;;;3.35
40624;BMP280;26325;48.594;11.650;2022-12-07T05:21:13;96564.41;;;3.31
40624;BMP280;26325;48.594;11.650;2022-12-07T05:23:39;96564.81;;;3.35
40624;BMP280;26325;48.594;11.650;2022-12-07T05:26:04;96565.56;;;3.29
40624;BMP280;26325;48.594;11.650;2022-12-07T05:28:32;96560.84;;;3.39
40624;BMP280;26325;48.594;11.650;2022-12-07T05:30:58;96560.06;;;3.38
40624;BMP280;26325;48.594;11.650;2022-12-07T05:33:23;96548.69;;;3.41
40624;BMP280;26325;48.594;11.650;2022-12-07T05:35:49;96557.72;;;3.24
40624;BMP280;26325;48.594;11.650;2022-12-07T05:38:14;96545.13;;;3.10
40624;BMP280;26325;48.594;11.650;2022-12-07T05:40:40;96553.59;;;3.23
40624;BMP280;26325;48.594;11.650;2022-12-07T05:43:05;96555.34;;;3.03
40624;BMP280;26325;48.594;11.650;2022-12-07T05:45:31;96552.03;;;3.09
40624;BMP280;26325;48.594;11.650;2022-12-07T05:47:57;96547.50;;;2.99
40624;BMP280;26325;48.594;11.650;2022-12-07T05:50:22;96541.97;;;2.89
40624;BMP280;26325;48.594;11.650;2022-12-07T05:52:48;96544.72;;;2.94
40624;BMP280;26325;48.594;11.650;2022-12-07T05:55:15;96544.72;;;2.94
40624;BMP280;26325;48.594;11.650;2022-12-07T05:57:41;96540.38;;;2.75
40624;BMP280;26325;48.594;11.650;2022-12-07T06:00:29;96540.41;;;2.88
40624;BMP280;26325;48.594;11.650;2022-12-07T06:02:54;96546.06;;;2.77
40624;BMP280;26325;48.594;11.650;2022-12-07T06:05:20;96557.25;;;2.76
40624;BMP280;26325;48.594;11.650;2022-12-07T06:07:45;96541.19;;;2.82
40624;BMP280;26325;48.594;11.650;2022-12-07T06:10:11;96536.66;;;2.78
40624;BMP280;26325;48.594;11.650;2022-12-07T06:12:36;96545.09;;;2.72
40624;BMP280;26325;48.594;11.650;2022-12-07T06:15:08;96536.47;;;2.73
40624;BMP280;26325;48.594;11.650;2022-12-07T06:17:39;96551.34;;;2.69
40624;BMP280;26325;48.594;11.650;2022-12-07T06:20:06;96548.38;;;2.60
40624;BMP280;26325;48.594;11.650;2022-12-07T06:22:34;96549.09;;;2.41
40624;BMP280;26325;48.594;11.650;2022-12-07T06:24:59;96545.75;;;2.34
40624;BMP280;26325;48.594;11.650;2022-12-07T06:27:26;96544.34;;;2.26
40624;BMP280;26325;48.594;11.650;2022-12-07T06:29:52;96548.25;;;2.22
40624;BMP280;26325;48.594;11.650;2022-12-07T06:32:20;96557.81;;;2.13
40624;BMP280;26325;48.594;11.650;2022-12-07T06:34:45;96553.16;;;1.90
40624;BMP280;26325;48.594;11.650;2022-12-07T06:37:12;96555.78;;;1.96
40624;BMP280;26325;48.594;11.650;2022-12-07T06:39:38;96558.88;;;1.92
40624;BMP280;26325;48.594;11.650;2022-12-07T06:42:04;96560.41;;;1.87
40624;BMP280;26325;48.594;11.650;2022-12-07T06:44:29;96553.75;;;1.86
40624;BMP280;26325;48.594;11.650;2022-12-07T06:46:55;96555.31;;;1.87
40624;BMP280;26325;48.594;11.650;2022-12-07T06:49:20;96562.81;;;1.94
40624;BMP280;26325;48.594;11.650;2022-12-07T06:51:46;96558.91;;;1.98
40624;BMP280;26325;48.594;11.650;2022-12-07T06:54:13;96557.56;;;2.02
40624;BMP280;26325;48.594;11.650;2022-12-07T06:56:40;96555.22;;;2.07
40624;BMP280;26325;48.594;11.650;2022-12-07T06:59:06;96560.09;;;2.02
40624;BMP280;26325;48.594;11.650;2022-12-07T07:01:33;96558.56;;;2.08
40624;BMP280;26325;48.594;11.650;2022-12-07T07:03:59;96559.75;;;2.05
40624;BMP280;26325;48.594;11.650;2022-12-07T07:06:25;96559.78;;;2.11
40624;BMP280;26325;48.594;11.650;2022-12-07T07:08:53;96572.94;;;2.15
40624;BMP280;26325;48.594;11.650;2022-12-07T07:11:19;96571.56;;;2.19
40624;BMP280;26325;48.594;11.650;2022-12-07T07:13:47;96573.50;;;2.17
40624;BMP280;26325;48.594;11.650;2022-12-07T07:16:12;96575.06;;;2.18
40624;BMP280;26325;48.594;11.650;2022-12-07T07:18:38;96582.72;;;2.18
40624;BMP280;26325;48.594;11.650;2022-12-07T07:21:04;96582.34;;;2.21
40624;BMP280;26325;48.594;11.650;2022-12-07T07:23:30;96582.56;;;2.26
40624;BMP280;26325;48.594;11.650;2022-12-07T07:25:56;96587.66;;;2.26
40624;BMP280;26325;48.594;11.650;2022-12-07T07:28:21;96591.19;;;2.25
40624;BMP280;26325;48.594;11.650;2022-12-07T07:30:47;96594.78;;;2.36
40624;BMP280;26325;48.594;11.650;2022-12-07T07:33:13;96603.91;;;2.58
40624;BMP280;26325;48.594;11.650;2022-12-07T07:35:39;96603.94;;;2.70
40624;BMP280;26325;48.594;11.650;2022-12-07T07:38:05;96614.72;;;2.72
40624;BMP280;26325;48.594;11.650;2022-12-07T07:40:31;96606.47;;;2.70
40624;BMP280;26325;48.594;11.650;2022-12-07T07:42:57;96610.97;;;2.68
40624;BMP280;26325;48.594;11.650;2022-12-07T07:45:26;96614.34;;;2.75
40624;BMP280;26325;48.594;11.650;2022-12-07T07:47:51;96622.59;;;2.77
40624;BMP280;26325;48.594;11.650;2022-12-07T07:50:17;96620.34;;;2.55
40624;BMP280;26325;48.594;11.650;2022-12-07T07:52:46;96629.00;;;2.61
40624;BMP280;26325;48.594;11.650;2022-12-07T07:55:12;96621.94;;;2.63
40624;BMP280;26325;48.594;11.650;2022-12-07T07:57:39;96629.81;;;2.67
40624;BMP280;26325;48.594;11.650;2022-12-07T08:00:10;96632.78;;;2.77
40624;BMP280;26325;48.594;11.650;2022-12-07T08:02:36;96623.97;;;2.80
40624;BMP280;26325;48.594;11.650;2022-12-07T08:05:02;96632.63;;;2.85
40624;BMP280;26325;48.594;11.650;2022-12-07T08:07:37;96626.09;;;3.60
40624;BMP280;26325;48.594;11.650;2022-12-07T08:10:03;96631.91;;;4.24
40624;BMP280;26325;48.594;11.650;2022-12-07T08:12:28;96630.94;;;5.23
40624;BMP280;26325;48.594;11.650;2022-12-07T08:14:54;96619.13;;;6.77
40624;BMP280;26325;48.594;11.650;2022-12-07T08:17:20;96618.06;;;8.04
40624;BMP280;26325;48.594;11.650;2022-12-07T08:19:45;96617.38;;;9.03
40624;BMP280;26325;48.594;11.650;2022-12-07T08:22:11;96616.03;;;9.71
40624;BMP280;26325;48.594;11.650;2022-12-07T08:24:36;96611.97;;;10.39
40624;BMP280;26325;48.594;11.650;2022-12-07T08:27:06;96608.03;;;10.95
40624;BMP280;26325;48.594;11.650;2022-12-07T08:29:34;96603.72;;;10.42
40624;BMP280;26325;48.594;11.650;2022-12-07T08:31:59;96596.50;;;9.32
40624;BMP280;26325;48.594;11.650;2022-12-07T08:34:26;96597.03;;;8.90
40624;BMP280;26325;48.594;11.650;2022-12-07T08:36:58;96605.22;;;9.42
40624;BMP280;26325;48.594;11.650;2022-12-07T08:39:23;96603.81;;;9.94
40624;BMP280;26325;48.594;11.650;2022-12-07T08:41:55;96606.69;;;10.66
40624;BMP280;26325;48.594;11.650;2022-12-07T08:44:21;96605.06;;;10.82
40624;BMP280;26325;48.594;11.650;2022-12-07T08:50:09;96599.44;;;11.57
40624;BMP280;26325;48.594;11.650;2022-12-07T08:52:36;96593.03;;;12.31
40624;BMP280;26325;48.594;11.650;2022-12-07T08:55:04;96595.00;;;12.55
40624;BMP280;26325;48.594;11.650;2022-12-07T08:57:32;96591.94;;;11.86
40624;BMP280;26325;48.594;11.650;2022-12-07T08:59:59;96612.25;;;10.43
40624;BMP280;26325;48.594;11.650;2022-12-07T09:02:24;96617.06;;;9.70
40624;BMP280;26325;48.594;11.650;2022-12-07T09:04:50;96615.97;;;9.39
40624;BMP280;26325;48.594;11.650;2022-12-07T09:07:16;96610.06;;;8.73
40624;BMP280;26325;48.594;11.650;2022-12-07T09:09:41;96614.16;;;9.23
40624;BMP280;26325;48.594;11.650;2022-12-07T09:12:07;96605.91;;;10.13
40624;BMP280;26325;48.594;11.650;2022-12-07T09:14:33;96612.59;;;10.67
40624;BMP280;26325;48.594;11.650;2022-12-07T09:17:09;96621.84;;;8.96
40624;BMP280;26325;48.594;11.650;2022-12-07T09:19:35;96606.78;;;10.02
40624;BMP280;26325;48.594;11.650;2022-12-07T09:22:04;96613.53;;;10.40
40624;BMP280;26325;48.594;11.650;2022-12-07T09:24:35;96613.25;;;12.29
40624;BMP280;26325;48.594;11.650;2022-12-07T09:27:00;96600.44;;;12.98
40624;BMP280;26325;48.594;11.650;2022-12-07T09:29:28;96598.91;;;12.17
40624;BMP280;26325;48.594;11.650;2022-12-07T09:31:56;96605.19;;;10.17
40624;BMP280;26325;48.594;11.650;2022-12-07T09:34:21;96616.91;;;9.76
40624;BMP280;26325;48.594;11.650;2022-12-07T09:36:47;96612.19;;;10.96
40624;BMP280;26325;48.594;11.650;2022-12-07T09:39:12;96592.28;;;12.35
40624;BMP280;26325;48.594;11.650;2022-12-07T09:41:40;96611.72;;;10.57
40624;BMP280;26325;48.594;11.650;2022-12-07T09:44:14;96611.13;;;11.34
40624;BMP280;26325;48.594;11.650;2022-12-07T09:46:44;96594.44;;;10.41
40624;BMP280;26325;48.594;11.650;2022-12-07T09:49:18;96596.03;;;11.05
40624;BMP280;26325;48.594;11.650;2022-12-07T09:51:45;96592.97;;;10.66
40624;BMP280;26325;48.594;11.650;2022-12-07T09:54:16;96604.25;;;11.75
40624;BMP280;26325;48.594;11.650;2022-12-07T09:56:43;96604.19;;;10.55
40624;BMP280;26325;48.594;11.650;2022-12-07T09:59:16;96598.63;;;11.82
40624;BMP280;26325;48.594;11.650;2022-12-07T10:01:47;96591.78;;;10.73
40624;BMP280;26325;48.594;11.650;2022-12-07T10:04:23;96609.09;;;10.20
40624;BMP280;26325;48.594;11.650;2022-12-07T10:06:49;96563.16;;;11.01
40624;BMP280;26325;48.594;11.650;2022-12-07T10:09:21;96571.09;;;10.94
40624;BMP280;26325;48.594;11.650;2022-12-07T10:14:32;96570.75;;;8.16
40624;BMP280;26325;48.594;11.650;2022-12-07T10:17:00;96564.72;;;6.97
40624;BMP280;26325;48.594;11.650;2022-12-07T10:19:32;96560.63;;;7.07
40624;BMP280;26325;48.594;11.650;2022-12-07T10:22:16;96561.09;;;7.04
40624;BMP280;26325;48.594;11.650;2022-12-07T10:24:46;96559.59;;;6.97
40624;BMP280;26325;48.594;11.650;2022-12-07T10:27:26;96564.97;;;6.96
40624;BMP280;26325;48.594;11.650;2022-12-07T10:29:54;96560.25;;;6.93
40624;BMP280;26325;48.594;11.650;2022-12-07T10:34:45;96569.06;;;6.68
40624;BMP280;26325;48.594;11.650;2022-12-07T10:42:26;96569.06;;;6.68
40624;BMP280;26325;48.594;11.650;2022-12-07T10:48:11;96565.03;;;6.43
40624;BMP280;26325;48.594;11.650;2022-12-07T10:53:32;96565.66;;;6.21
40624;BMP280;26325;48.594;11.650;2022-12-07T11:05:49;96558.50;;;5.88
40624;BMP280;26325;48.594;11.650;2022-12-07T11:08:57;96552.97;;;5.91
40624;BMP280;26325;48.594;11.650;2022-12-07T11:11:38;96549.31;;;5.81
40624;BMP280;26325;48.594;11.650;2022-12-07T11:28:38;96516.88;;;6.10
40624;BMP280;26325;48.594;11.650;2022-12-07T11:36:40;96515.34;;;5.68
40624;BMP280;26325;48.594;11.650;2022-12-07T11:41:52;96523.13;;;6.14
40624;BMP280;26325;48.594;11.650;2022-12-07T11:44:32;96505.19;;;6.31
40624;BMP280;26325;48.594;11.650;2022-12-07T11:52:32;96502.00;;;5.83
40624;BMP280;26325;48.594;11.650;2022-12-07T11:55:16;96510.09;;;5.80
40624;BMP280;26325;48.594;11.650;2022-12-07T11:57:53;96501.03;;;5.78
40624;BMP280;26325;48.594;11.650;2022-12-07T12:00:22;96499.53;;;5.70
40624;BMP280;26325;48.594;11.650;2022-12-07T12:03:03;96501.84;;;5.31
40624;BMP280;26325;48.594;11.650;2022-12-07T12:05:30;96491.94;;;5.40
40624;BMP280;26325;48.594;11.650;2022-12-07T12:08:29;96496.66;;;5.61
40624;BMP280;26325;48.594;11.650;2022-12-07T12:11:26;96492.56;;;5.53
40624;BMP280;26325;48.594;11.650;2022-12-07T12:20:26;96488.50;;;5.70
40624;BMP280;26325;48.594;11.650;2022-12-07T12:23:19;96487.09;;;5.74
40624;BMP280;26325;48.594;11.650;2022-12-07T12:25:58;96478.28;;;5.64
40624;BMP280;26325;48.594;11.650;2022-12-07T12:28:38;96474.28;;;5.74
40624;BMP280;26325;48.594;11.650;2022-12-07T12:31:16;96481.53;;;5.53
40624;BMP280;26325;48.594;11.650;2022-12-07T12:33:58;96474.72;;;5.47
40624;BMP280;26325;48.594;11.650;2022-12-07T12:47:03;96480.47;;;5.67
40624;BMP280;26325;48.594;11.650;2022-12-07T12:49:40;96484.38;;;5.45
40624;BMP280;26325;48.594;11.650;2022-12-07T12:55:17;96473.53;;;5.50
40624;BMP280;26325;48.594;11.650;2022-12-07T13:00:42;96476.97;;;5.37
40624;BMP280;26325;48.594;11.650;2022-12-07T13:03:30;96475.66;;;5.29
40624;BMP280;26325;48.594;11.650;2022-12-07T13:08:45;96465.75;;;5.14
40624;BMP280;26325;48.594;11.650;2022-12-07T13:11:29;96462.66;;;5.06
40624;BMP280;26325;48.594;11.650;2022-12-07T13:17:00;96459.78;;;4.66
40624;BMP280;26325;48.594;11.650;2022-12-07T13:25:08;96443.19;;;4.75
40624;BMP280;26325;48.594;11.650;2022-12-07T13:27:41;96452.50;;;4.70
40624;BMP280;26325;48.594;11.650;2022-12-07T13:30:21;96453.88;;;4.72
40624;BMP280;26325;48.594;11.650;2022-12-07T13:32:56;96459.53;;;4.74
40624;BMP280;26325;48.594;11.650;2022-12-07T13:35:31;96453.47;;;4.69
40624;BMP280;26325;48.594;11.650;2022-12-07T13:37:57;96450.34;;;4.67
40624;BMP280;26325;48.594;11.650;2022-12-07T13:40:23;96445.03;;;4.68
40624;BMP280;26325;48.594;11.650;2022-12-07T13:42:58;96459.25;;;4.58
40624;BMP280;26325;48.594;11.650;2022-12-07T13:45:33;96451.13;;;4.67
40624;BMP280;26325;48.594;11.650;2022-12-07T13:48:46;96443.19;;;4.75
40624;BMP280;26325;48.594;11.650;2022-12-07T13:51:34;96435.97;;;4.72
40624;BMP280;26325;48.594;11.650;2022-12-07T13:54:11;96447.19;;;4.71
40624;BMP280;26325;48.594;11.650;2022-12-07T13:56:37;96426.34;;;4.68
40624;BMP280;26325;48.594;11.650;2022-12-07T13:59:13;96433.81;;;4.69
40624;BMP280;26325;48.594;11.650;2022-12-07T14:01:41;96450.53;;;4.65
40624;BMP280;26325;48.594;11.650;2022-12-07T14:06:59;96445.44;;;4.65
40624;BMP280;26325;48.594;11.650;2022-12-07T14:09:29;96447.44;;;4.63
40624;BMP280;26325;48.594;11.650;2022-12-07T14:11:57;96458.22;;;4.65
40624;BMP280;26325;48.594;11.650;2022-12-07T14:14:31;96447.19;;;4.71
40624;BMP280;26325;48.594;11.650;2022-12-07T14:20:00;96447.09;;;4.54
40624;BMP280;26325;48.594;11.650;2022-12-07T14:22:33;96432.75;;;4.53
40624;BMP280;26325;48.594;11.650;2022-12-07T14:27:33;96436.34;;;4.45
40624;BMP280;26325;48.594;11.650;2022-12-07T14:30:01;96437.13;;;4.46
40624;BMP280;26325;48.594;11.650;2022-12-07T14:32:29;96435.13;;;4.48
40624;BMP280;26325;48.594;11.650;2022-12-07T14:37:25;96426.69;;;4.41
40624;BMP280;26325;48.594;11.650;2022-12-07T14:39:51;96430.00;;;4.48
40624;BMP280;26325;48.594;11.650;2022-12-07T14:42:16;96424.44;;;4.57
40624;BMP280;26325;48.594;11.650;2022-12-07T14:44:43;96424.88;;;4.48
40624;BMP280;26325;48.594;11.650;2022-12-07T14:47:10;96425.66;;;4.55
40624;BMP280;26325;48.594;11.650;2022-12-07T14:49:36;96421.28;;;4.61
40624;BMP280;26325;48.594;11.650;2022-12-07T14:52:01;96417.28;;;4.65
40624;BMP280;26325;48.594;11.650;2022-12-07T14:54:30;96420.44;;;4.67
40624;BMP280;26325;48.594;11.650;2022-12-07T14:56:56;96426.28;;;4.74
40624;BMP280;26325;48.594;11.650;2022-12-07T14:59:22;96417.06;;;4.73
40624;BMP280;26325;48.594;11.650;2022-12-07T15:01:47;96417.28;;;4.65
40624;BMP280;26325;48.594;11.650;2022-12-07T15:04:13;96423.00;;;4.67
40624;BMP280;26325;48.594;11.650;2022-12-07T15:06:39;96424.44;;;4.57
40624;BMP280;26325;48.594;11.650;2022-12-07T15:09:05;96423.97;;;4.73
40624;BMP280;26325;48.594;11.650;2022-12-07T15:11:31;96433.59;;;4.71
40624;BMP280;26325;48.594;11.650;2022-12-07T15:14:01;96430.06;;;4.65
40624;BMP280;26325;48.594;11.650;2022-12-07T15:16:41;96425.97;;;4.64
40624;BMP280;26325;48.594;11.650;2022-12-07T15:19:20;96421.41;;;4.66
40624;BMP280;26325;48.594;11.650;2022-12-07T15:21:50;96423.56;;;4.69
40624;BMP280;26325;48.594;11.650;2022-12-07T15:24:16;96421.41;;;4.66
40624;BMP280;26325;48.594;11.650;2022-12-07T15:26:44;96424.75;;;4.73
40624;BMP280;26325;48.594;11.650;2022-12-07T15:29:10;96425.66;;;4.55
40624;BMP280;26325;48.594;11.650;2022-12-07T15:31:37;96429.34;;;4.58
40624;BMP280;26325;48.594;11.650;2022-12-07T15:34:03;96431.16;;;4.52
40624;BMP280;26325;48.594;11.650;2022-12-07T15:36:32;96429.59;;;4.51
40624;BMP280;26325;48.594;11.650;2022-12-07T15:38:58;96427.44;;;4.48
40624;BMP280;26325;48.594;11.650;2022-12-07T15:41:24;96426.84;;;4.52
40624;BMP280;26325;48.594;11.650;2022-12-07T15:43:49;96422.66;;;4.57
40624;BMP280;26325;48.594;11.650;2022-12-07T15:46:39;96421.31;;;4.55
40624;BMP280;26325;48.594;11.650;2022-12-07T15:49:15;96415.13;;;4.38
40624;BMP280;26325;48.594;11.650;2022-12-07T15:51:42;96410.38;;;4.42
40624;BMP280;26325;48.594;11.650;2022-12-07T15:54:19;96412.94;;;4.42
40624;BMP280;26325;48.594;11.650;2022-12-07T15:56:45;96410.56;;;4.47
40624;BMP280;26325;48.594;11.650;2022-12-07T15:59:11;96401.81;;;4.24
40624;BMP280;26325;48.594;11.650;2022-12-07T16:01:36;96407.47;;;4.32
40624;BMP280;26325;48.594;11.650;2022-12-07T16:04:02;96415.81;;;4.21
40624;BMP280;26325;48.594;11.650;2022-12-07T16:06:27;96413.63;;;4.25
40624;BMP280;26325;48.594;11.650;2022-12-07T16:08:53;96411.31;;;4.17
40624;BMP280;26325;48.594;11.650;2022-12-07T16:11:20;96416.03;;;4.20
40624;BMP280;26325;48.594;11.650;2022-12-07T16:13:45;96409.34;;;4.19
40624;BMP280;26325;48.594;11.650;2022-12-07T16:16:14;96418.00;;;4.18
40624;BMP280;26325;48.594;11.650;2022-12-07T16:18:43;96416.81;;;4.14
40624;BMP280;26325;48.594;11.650;2022-12-07T16:21:09;96411.16;;;4.06
40624;BMP280;26325;48.594;11.650;2022-12-07T16:23:35;96413.72;;;4.06
40624;BMP280;26325;48.594;11.650;2022-12-07T16:26:21;96413.53;;;4.07
40624;BMP280;26325;48.594;11.650;2022-12-07T16:28:52;96412.34;;;4.10
40624;BMP280;26325;48.594;11.650;2022-12-07T16:31:22;96405.66;;;4.09
40624;BMP280;26325;48.594;11.650;2022-12-07T16:33:49;96410.03;;;4.02